sensor_id;sensor_type;location;lat;lon;timestamp;temperature;humidity
12446;DHT22;6287;50.984;7.022;2022-08-14T00:03:27;20.40;93.10
12446;DHT22;6287;50.984;7.022;2022-08-14T00:05:57;20.40;94.20
12446;DHT22;6287;50.984;7.022;2022-08-14T00:08:25;20.40;94.40
12446;DHT22;6287;50.984;7.022;2022-08-14T00:10:54;20.40;94.30
12446;DHT22;6287;50.984;7.022;2022-08-14T00:13:23;20.40;94.80
12446;DHT22;6287;50.984;7.022;2022-08-14T00:15:55;20.30;94.80
12446;DHT22;6287;50.984;7.022;2022-08-14T00:18:25;20.30;95.00
12446;DHT22;6287;50.984;7.022;2022-08-14T00:20:54;20.30;95.20
12446;DHT22;6287;50.984;7.022;2022-08-14T00:23:23;20.30;95.90
12446;DHT22;6287;50.984;7.022;2022-08-14T00:25:51;20.30;96.10
12446;DHT22;6287;50.984;7.022;2022-08-14T00:28:17;20.30;95.90
12446;DHT22;6287;50.984;7.022;2022-08-14T00:30:47;20.20;96.60
12446;DHT22;6287;50.984;7.022;2022-08-14T00:33:17;20.20;96.60
12446;DHT22;6287;50.984;7.022;2022-08-14T00:38:11;20.10;97.20
12446;DHT22;6287;50.984;7.022;2022-08-14T00:40:36;20.10;97.30
12446;DHT22;6287;50.984;7.022;2022-08-14T00:43:07;20.10;98.30
12446;DHT22;6287;50.984;7.022;2022-08-14T00:45:35;20.10;98.50
12446;DHT22;6287;50.984;7.022;2022-08-14T00:48:01;20.10;98.60
12446;DHT22;6287;50.984;7.022;2022-08-14T00:50:30;20.10;98.70
12446;DHT22;6287;50.984;7.022;2022-08-14T00:52:56;20.10;99.20
12446;DHT22;6287;50.984;7.022;2022-08-14T00:55:25;20.10;99.80
12446;DHT22;6287;50.984;7.022;2022-08-14T00:57:52;20.00;99.30
12446;DHT22;6287;50.984;7.022;2022-08-14T01:00:39;20.00;99.90
12446;DHT22;6287;50.984;7.022;2022-08-14T01:03:08;20.00;99.70
12446;DHT22;6287;50.984;7.022;2022-08-14T01:05:39;20.00;99.90
12446;DHT22;6287;50.984;7.022;2022-08-14T01:08:04;20.00;99.90
12446;DHT22;6287;50.984;7.022;2022-08-14T01:10:35;20.00;99.90
12446;DHT22;6287;50.984;7.022;2022-08-14T01:13:30;20.00;99.90
12446;DHT22;6287;50.984;7.022;2022-08-14T01:16:03;20.00;99.90
12446;DHT22;6287;50.984;7.022;2022-08-14T01:18:32;20.00;99.90
12446;DHT22;6287;50.984;7.022;2022-08-14T01:21:24;20.00;99.90
12446;DHT22;6287;50.984;7.022;2022-08-14T01:23:59;20.00;99.90
12446;DHT22;6287;50.984;7.022;2022-08-14T01:26:26;19.90;99.90
12446;DHT22;6287;50.984;7.022;2022-08-14T01:28:56;19.90;99.90
12446;DHT22;6287;50.984;7.022;2022-08-14T01:31:28;19.90;99.90
12446;DHT22;6287;50.984;7.022;2022-08-14T01:33:57;19.90;99.90
12446;DHT22;6287;50.984;7.022;2022-08-14T01:36:24;19.90;99.90
12446;DHT22;6287;50.984;7.022;2022-08-14T01:38:53;19.90;99.90
12446;DHT22;6287;50.984;7.022;2022-08-14T01:41:24;20.00;99.90
12446;DHT22;6287;50.984;7.022;2022-08-14T01:43:54;20.00;99.90
12446;DHT22;6287;50.984;7.022;2022-08-14T01:46:27;20.10;99.90
12446;DHT22;6287;50.984;7.022;2022-08-14T01:48:54;20.30;99.90
12446;DHT22;6287;50.984;7.022;2022-08-14T01:51:24;20.30;99.90
12446;DHT22;6287;50.984;7.022;2022-08-14T01:53:55;20.40;99.90
12446;DHT22;6287;50.984;7.022;2022-08-14T01:56:23;20.40;99.90
12446;DHT22;6287;50.984;7.022;2022-08-14T01:58:57;20.50;99.90
12446;DHT22;6287;50.984;7.022;2022-08-14T02:01:23;20.60;99.90
12446;DHT22;6287;50.984;7.022;2022-08-14T02:03:48;20.60;99.90
12446;DHT22;6287;50.984;7.022;2022-08-14T02:06:14;20.70;99.90
12446;DHT22;6287;50.984;7.022;2022-08-14T02:08:40;20.70;99.90
12446;DHT22;6287;50.984;7.022;2022-08-14T02:11:09;20.80;99.90
12446;DHT22;6287;50.984;7.022;2022-08-14T02:13:59;20.80;99.90
12446;DHT22;6287;50.984;7.022;2022-08-14T02:16:27;20.90;99.90
12446;DHT22;6287;50.984;7.022;2022-08-14T02:18:57;21.00;99.90
12446;DHT22;6287;50.984;7.022;2022-08-14T02:21:23;21.00;99.90
12446;DHT22;6287;50.984;7.022;2022-08-14T02:23:51;21.10;99.90
12446;DHT22;6287;50.984;7.022;2022-08-14T02:26:25;21.10;99.90
12446;DHT22;6287;50.984;7.022;2022-08-14T02:28:59;21.10;99.90
12446;DHT22;6287;50.984;7.022;2022-08-14T02:31:32;21.10;99.90
12446;DHT22;6287;50.984;7.022;2022-08-14T02:34:02;21.10;99.90
12446;DHT22;6287;50.984;7.022;2022-08-14T02:36:28;21.10;99.90
12446;DHT22;6287;50.984;7.022;2022-08-14T02:38:54;21.20;99.90
12446;DHT22;6287;50.984;7.022;2022-08-14T02:41:22;21.10;99.90
12446;DHT22;6287;50.984;7.022;2022-08-14T02:43:49;21.10;99.90
12446;DHT22;6287;50.984;7.022;2022-08-14T02:46:15;21.10;99.90
12446;DHT22;6287;50.984;7.022;2022-08-14T02:48:45;21.00;99.90
12446;DHT22;6287;50.984;7.022;2022-08-14T02:51:12;20.90;99.90
12446;DHT22;6287;50.984;7.022;2022-08-14T02:53:43;20.90;99.90
12446;DHT22;6287;50.984;7.022;2022-08-14T02:56:11;20.80;99.90
12446;DHT22;6287;50.984;7.022;2022-08-14T02:58:45;20.70;99.90
12446;DHT22;6287;50.984;7.022;2022-08-14T03:01:17;20.70;99.90
12446;DHT22;6287;50.984;7.022;2022-08-14T03:03:44;20.60;99.90
12446;DHT22;6287;50.984;7.022;2022-08-14T03:06:14;20.60;99.90
12446;DHT22;6287;50.984;7.022;2022-08-14T03:08:41;20.50;99.90
12446;DHT22;6287;50.984;7.022;2022-08-14T03:11:09;20.50;99.90
12446;DHT22;6287;50.984;7.022;2022-08-14T03:13:37;20.50;99.90
12446;DHT22;6287;50.984;7.022;2022-08-14T03:16:09;20.40;99.90
12446;DHT22;6287;50.984;7.022;2022-08-14T03:18:40;20.40;99.90
12446;DHT22;6287;50.984;7.022;2022-08-14T03:21:08;20.30;99.90
12446;DHT22;6287;50.984;7.022;2022-08-14T03:23:44;20.30;99.90
12446;DHT22;6287;50.984;7.022;2022-08-14T03:26:15;20.30;99.90
12446;DHT22;6287;50.984;7.022;2022-08-14T03:28:43;20.30;99.90
12446;DHT22;6287;50.984;7.022;2022-08-14T03:31:12;20.20;99.90
12446;DHT22;6287;50.984;7.022;2022-08-14T03:33:42;20.10;99.90
12446;DHT22;6287;50.984;7.022;2022-08-14T03:36:10;20.20;99.90
12446;DHT22;6287;50.984;7.022;2022-08-14T03:38:42;20.10;99.90
12446;DHT22;6287;50.984;7.022;2022-08-14T03:41:14;20.10;99.90
12446;DHT22;6287;50.984;7.022;2022-08-14T03:43:55;20.10;99.90
12446;DHT22;6287;50.984;7.022;2022-08-14T03:46:25;20.10;99.90
12446;DHT22;6287;50.984;7.022;2022-08-14T03:48:56;20.10;99.90
12446;DHT22;6287;50.984;7.022;2022-08-14T03:51:23;20.00;99.90
12446;DHT22;6287;50.984;7.022;2022-08-14T03:53:59;20.00;99.90
12446;DHT22;6287;50.984;7.022;2022-08-14T03:56:26;19.90;99.90
12446;DHT22;6287;50.984;7.022;2022-08-14T03:58:56;19.90;99.90
12446;DHT22;6287;50.984;7.022;2022-08-14T04:01:23;19.80;99.90
12446;DHT22;6287;50.984;7.022;2022-08-14T04:03:54;19.70;99.90
12446;DHT22;6287;50.984;7.022;2022-08-14T04:06:19;19.60;99.90
12446;DHT22;6287;50.984;7.022;2022-08-14T04:08:47;19.60;99.90
12446;DHT22;6287;50.984;7.022;2022-08-14T04:11:16;19.50;99.90
12446;DHT22;6287;50.984;7.022;2022-08-14T04:13:43;19.50;99.90
12446;DHT22;6287;50.984;7.022;2022-08-14T04:16:14;19.50;99.90
12446;DHT22;6287;50.984;7.022;2022-08-14T04:18:51;19.40;99.90
12446;DHT22;6287;50.984;7.022;2022-08-14T04:21:18;19.40;99.90
12446;DHT22;6287;50.984;7.022;2022-08-14T04:23:50;19.40;99.90
12446;DHT22;6287;50.984;7.022;2022-08-14T04:26:19;19.40;99.90
12446;DHT22;6287;50.984;7.022;2022-08-14T04:28:50;19.40;99.90
12446;DHT22;6287;50.984;7.022;2022-08-14T04:31:22;19.40;99.90
12446;DHT22;6287;50.984;7.022;2022-08-14T04:33:52;19.40;99.90
12446;DHT22;6287;50.984;7.022;2022-08-14T04:36:19;19.40;99.90
12446;DHT22;6287;50.984;7.022;2022-08-14T04:38:49;19.30;99.90
12446;DHT22;6287;50.984;7.022;2022-08-14T04:41:35;19.30;99.90
12446;DHT22;6287;50.984;7.022;2022-08-14T04:44:20;19.30;99.90
12446;DHT22;6287;50.984;7.022;2022-08-14T04:46:45;19.30;99.90
12446;DHT22;6287;50.984;7.022;2022-08-14T04:49:30;19.30;99.90
12446;DHT22;6287;50.984;7.022;2022-08-14T04:51:58;19.30;99.90
12446;DHT22;6287;50.984;7.022;2022-08-14T04:54:25;19.30;99.90
12446;DHT22;6287;50.984;7.022;2022-08-14T04:56:52;19.30;99.90
12446;DHT22;6287;50.984;7.022;2022-08-14T04:59:21;19.30;99.90
12446;DHT22;6287;50.984;7.022;2022-08-14T05:01:49;19.40;99.90
12446;DHT22;6287;50.984;7.022;2022-08-14T05:04:16;19.40;99.90
12446;DHT22;6287;50.984;7.022;2022-08-14T05:06:42;19.40;99.90
12446;DHT22;6287;50.984;7.022;2022-08-14T05:09:10;19.50;99.90
12446;DHT22;6287;50.984;7.022;2022-08-14T05:11:36;19.40;99.90
12446;DHT22;6287;50.984;7.022;2022-08-14T05:14:03;19.60;99.90
12446;DHT22;6287;50.984;7.022;2022-08-14T05:16:29;19.60;99.90
12446;DHT22;6287;50.984;7.022;2022-08-14T05:18:59;19.70;99.90
12446;DHT22;6287;50.984;7.022;2022-08-14T05:21:27;19.70;99.90
12446;DHT22;6287;50.984;7.022;2022-08-14T05:23:53;19.80;99.90
12446;DHT22;6287;50.984;7.022;2022-08-14T05:26:19;19.80;99.90
12446;DHT22;6287;50.984;7.022;2022-08-14T05:28:46;19.80;99.90
12446;DHT22;6287;50.984;7.022;2022-08-14T05:31:15;19.90;99.90
12446;DHT22;6287;50.984;7.022;2022-08-14T05:33:44;20.00;99.90
12446;DHT22;6287;50.984;7.022;2022-08-14T05:36:14;20.00;99.90
12446;DHT22;6287;50.984;7.022;2022-08-14T05:38:44;20.10;99.90
12446;DHT22;6287;50.984;7.022;2022-08-14T05:41:13;20.20;99.90
12446;DHT22;6287;50.984;7.022;2022-08-14T05:43:43;20.30;99.90
12446;DHT22;6287;50.984;7.022;2022-08-14T05:46:11;20.40;99.90
12446;DHT22;6287;50.984;7.022;2022-08-14T05:48:37;20.40;99.90
12446;DHT22;6287;50.984;7.022;2022-08-14T05:51:05;20.50;99.90
12446;DHT22;6287;50.984;7.022;2022-08-14T05:53:34;20.60;99.90
12446;DHT22;6287;50.984;7.022;2022-08-14T05:56:02;20.80;99.90
12446;DHT22;6287;50.984;7.022;2022-08-14T05:58:28;20.90;99.90
12446;DHT22;6287;50.984;7.022;2022-08-14T06:00:53;21.00;99.90
12446;DHT22;6287;50.984;7.022;2022-08-14T06:03:21;21.10;99.90
12446;DHT22;6287;50.984;7.022;2022-08-14T06:05:50;21.30;99.90
12446;DHT22;6287;50.984;7.022;2022-08-14T06:10:50;21.60;99.90
12446;DHT22;6287;50.984;7.022;2022-08-14T06:13:19;21.70;99.90
12446;DHT22;6287;50.984;7.022;2022-08-14T06:15:45;21.80;99.90
12446;DHT22;6287;50.984;7.022;2022-08-14T06:18:14;22.00;99.90
12446;DHT22;6287;50.984;7.022;2022-08-14T06:20:42;22.10;99.90
12446;DHT22;6287;50.984;7.022;2022-08-14T06:23:08;22.30;99.90
12446;DHT22;6287;50.984;7.022;2022-08-14T06:25:35;22.40;99.90
12446;DHT22;6287;50.984;7.022;2022-08-14T06:28:03;22.50;99.90
12446;DHT22;6287;50.984;7.022;2022-08-14T06:30:33;22.70;99.90
12446;DHT22;6287;50.984;7.022;2022-08-14T06:32:58;22.80;99.90
12446;DHT22;6287;50.984;7.022;2022-08-14T06:35:24;22.90;99.90
12446;DHT22;6287;50.984;7.022;2022-08-14T06:37:52;23.00;99.90
12446;DHT22;6287;50.984;7.022;2022-08-14T06:40:29;23.20;99.90
12446;DHT22;6287;50.984;7.022;2022-08-14T06:43:09;23.40;99.90
12446;DHT22;6287;50.984;7.022;2022-08-14T06:45:38;23.50;99.90
12446;DHT22;6287;50.984;7.022;2022-08-14T06:48:16;23.70;99.90
12446;DHT22;6287;50.984;7.022;2022-08-14T06:50:45;23.70;99.90
12446;DHT22;6287;50.984;7.022;2022-08-14T06:53:14;23.80;99.90
12446;DHT22;6287;50.984;7.022;2022-08-14T06:55:44;23.90;99.90
12446;DHT22;6287;50.984;7.022;2022-08-14T06:58:15;24.00;99.90
12446;DHT22;6287;50.984;7.022;2022-08-14T07:00:42;24.20;99.90
12446;DHT22;6287;50.984;7.022;2022-08-14T07:03:27;24.30;99.90
12446;DHT22;6287;50.984;7.022;2022-08-14T07:06:12;24.40;99.90
12446;DHT22;6287;50.984;7.022;2022-08-14T07:08:38;24.50;99.90
12446;DHT22;6287;50.984;7.022;2022-08-14T07:11:04;24.70;99.90
12446;DHT22;6287;50.984;7.022;2022-08-14T07:13:32;24.80;99.90
12446;DHT22;6287;50.984;7.022;2022-08-14T07:16:00;25.00;99.30
12446;DHT22;6287;50.984;7.022;2022-08-14T07:18:31;25.20;98.50
12446;DHT22;6287;50.984;7.022;2022-08-14T07:20:59;25.20;98.80
12446;DHT22;6287;50.984;7.022;2022-08-14T07:23:27;25.40;98.40
12446;DHT22;6287;50.984;7.022;2022-08-14T07:25:55;25.50;97.80
12446;DHT22;6287;50.984;7.022;2022-08-14T07:28:29;25.60;97.50
12446;DHT22;6287;50.984;7.022;2022-08-14T07:31:00;25.70;97.40
12446;DHT22;6287;50.984;7.022;2022-08-14T07:33:28;25.80;97.10
12446;DHT22;6287;50.984;7.022;2022-08-14T07:36:04;26.00;96.70
12446;DHT22;6287;50.984;7.022;2022-08-14T07:38:30;26.10;96.40
12446;DHT22;6287;50.984;7.022;2022-08-14T07:40:58;26.30;96.00
12446;DHT22;6287;50.984;7.022;2022-08-14T07:43:24;26.40;95.70
12446;DHT22;6287;50.984;7.022;2022-08-14T07:45:50;26.60;95.40
12446;DHT22;6287;50.984;7.022;2022-08-14T07:48:16;26.70;95.20
12446;DHT22;6287;50.984;7.022;2022-08-14T07:50:42;26.90;94.40
12446;DHT22;6287;50.984;7.022;2022-08-14T07:53:08;27.00;94.00
12446;DHT22;6287;50.984;7.022;2022-08-14T07:55:34;27.10;93.90
12446;DHT22;6287;50.984;7.022;2022-08-14T07:58:03;27.20;93.60
12446;DHT22;6287;50.984;7.022;2022-08-14T08:00:28;27.40;92.90
12446;DHT22;6287;50.984;7.022;2022-08-14T08:02:55;27.50;93.00
12446;DHT22;6287;50.984;7.022;2022-08-14T08:05:24;27.70;92.30
12446;DHT22;6287;50.984;7.022;2022-08-14T08:07:51;27.90;92.20
12446;DHT22;6287;50.984;7.022;2022-08-14T08:10:21;28.10;91.30
12446;DHT22;6287;50.984;7.022;2022-08-14T08:15:35;28.40;90.80
12446;DHT22;6287;50.984;7.022;2022-08-14T08:18:07;28.60;89.60
12446;DHT22;6287;50.984;7.022;2022-08-14T08:20:39;28.70;89.30
12446;DHT22;6287;50.984;7.022;2022-08-14T08:23:05;28.70;88.50
12446;DHT22;6287;50.984;7.022;2022-08-14T08:25:37;28.80;87.00
12446;DHT22;6287;50.984;7.022;2022-08-14T08:28:12;28.90;87.60
12446;DHT22;6287;50.984;7.022;2022-08-14T08:30:40;28.90;86.10
12446;DHT22;6287;50.984;7.022;2022-08-14T08:33:10;29.00;86.30
12446;DHT22;6287;50.984;7.022;2022-08-14T08:35:43;29.10;85.70
12446;DHT22;6287;50.984;7.022;2022-08-14T08:38:11;29.20;86.30
12446;DHT22;6287;50.984;7.022;2022-08-14T08:40:41;29.30;85.10
12446;DHT22;6287;50.984;7.022;2022-08-14T08:43:29;29.40;83.40
12446;DHT22;6287;50.984;7.022;2022-08-14T08:46:02;29.40;83.20
12446;DHT22;6287;50.984;7.022;2022-08-14T08:48:41;29.60;83.60
12446;DHT22;6287;50.984;7.022;2022-08-14T08:51:23;29.70;81.70
12446;DHT22;6287;50.984;7.022;2022-08-14T08:59:27;29.80;81.50
12446;DHT22;6287;50.984;7.022;2022-08-14T09:04:22;30.20;79.30
12446;DHT22;6287;50.984;7.022;2022-08-14T09:06:50;30.50;76.10
12446;DHT22;6287;50.984;7.022;2022-08-14T09:09:25;30.50;77.50
12446;DHT22;6287;50.984;7.022;2022-08-14T09:11:55;30.80;77.20
12446;DHT22;6287;50.984;7.022;2022-08-14T09:14:25;30.90;77.30
12446;DHT22;6287;50.984;7.022;2022-08-14T09:16:55;31.00;76.90
12446;DHT22;6287;50.984;7.022;2022-08-14T09:19:20;31.20;76.60
12446;DHT22;6287;50.984;7.022;2022-08-14T09:21:48;31.30;72.70
12446;DHT22;6287;50.984;7.022;2022-08-14T09:24:15;31.40;72.20
12446;DHT22;6287;50.984;7.022;2022-08-14T09:26:43;31.40;72.40
12446;DHT22;6287;50.984;7.022;2022-08-14T09:29:12;31.50;71.70
12446;DHT22;6287;50.984;7.022;2022-08-14T09:31:42;31.60;72.20
12446;DHT22;6287;50.984;7.022;2022-08-14T09:45:17;32.40;69.00
12446;DHT22;6287;50.984;7.022;2022-08-14T09:47:53;32.60;68.10
12446;DHT22;6287;50.984;7.022;2022-08-14T09:52:59;33.00;65.80
12446;DHT22;6287;50.984;7.022;2022-08-14T09:55:32;33.30;65.90
12446;DHT22;6287;50.984;7.022;2022-08-14T09:58:19;33.60;64.10
12446;DHT22;6287;50.984;7.022;2022-08-14T10:00:50;33.70;59.70
12446;DHT22;6287;50.984;7.022;2022-08-14T10:03:26;33.70;59.10
12446;DHT22;6287;50.984;7.022;2022-08-14T10:06:12;33.80;56.40
12446;DHT22;6287;50.984;7.022;2022-08-14T10:11:18;33.80;58.80
12446;DHT22;6287;50.984;7.022;2022-08-14T10:13:50;34.10;58.30
12446;DHT22;6287;50.984;7.022;2022-08-14T10:16:40;34.10;56.20
12446;DHT22;6287;50.984;7.022;2022-08-14T10:19:14;34.10;56.70
12446;DHT22;6287;50.984;7.022;2022-08-14T10:21:42;34.00;55.10
12446;DHT22;6287;50.984;7.022;2022-08-14T10:24:31;33.90;55.60
12446;DHT22;6287;50.984;7.022;2022-08-14T10:26:59;34.10;56.70
12446;DHT22;6287;50.984;7.022;2022-08-14T10:29:36;34.20;55.80
12446;DHT22;6287;50.984;7.022;2022-08-14T10:32:06;34.30;53.40
12446;DHT22;6287;50.984;7.022;2022-08-14T10:34:38;34.50;52.60
12446;DHT22;6287;50.984;7.022;2022-08-14T10:37:17;34.60;52.80
12446;DHT22;6287;50.984;7.022;2022-08-14T10:39:45;34.80;53.10
12446;DHT22;6287;50.984;7.022;2022-08-14T10:42:21;34.90;52.90
12446;DHT22;6287;50.984;7.022;2022-08-14T10:44:49;35.10;51.70
12446;DHT22;6287;50.984;7.022;2022-08-14T10:47:18;35.10;51.40
12446;DHT22;6287;50.984;7.022;2022-08-14T10:50:01;35.00;51.60
12446;DHT22;6287;50.984;7.022;2022-08-14T10:52:32;35.10;51.10
12446;DHT22;6287;50.984;7.022;2022-08-14T10:55:11;35.00;51.00
12446;DHT22;6287;50.984;7.022;2022-08-14T10:57:54;35.50;50.70
12446;DHT22;6287;50.984;7.022;2022-08-14T11:00:23;35.50;52.20
12446;DHT22;6287;50.984;7.022;2022-08-14T11:03:08;35.60;51.10
12446;DHT22;6287;50.984;7.022;2022-08-14T11:05:52;35.80;50.90
12446;DHT22;6287;50.984;7.022;2022-08-14T11:08:31;36.20;51.40
12446;DHT22;6287;50.984;7.022;2022-08-14T11:10:59;36.60;50.40
12446;DHT22;6287;50.984;7.022;2022-08-14T11:13:29;37.00;50.00
12446;DHT22;6287;50.984;7.022;2022-08-14T11:15:59;37.00;48.40
12446;DHT22;6287;50.984;7.022;2022-08-14T11:18:31;36.80;47.00
12446;DHT22;6287;50.984;7.022;2022-08-14T11:20:59;36.60;47.40
12446;DHT22;6287;50.984;7.022;2022-08-14T11:23:37;36.60;46.30
12446;DHT22;6287;50.984;7.022;2022-08-14T11:26:04;36.60;46.00
12446;DHT22;6287;50.984;7.022;2022-08-14T11:28:33;36.80;47.40
12446;DHT22;6287;50.984;7.022;2022-08-14T11:31:02;37.00;45.90
12446;DHT22;6287;50.984;7.022;2022-08-14T11:33:29;37.00;45.20
12446;DHT22;6287;50.984;7.022;2022-08-14T11:35:58;36.90;46.50
12446;DHT22;6287;50.984;7.022;2022-08-14T11:38:26;36.80;45.50
12446;DHT22;6287;50.984;7.022;2022-08-14T11:40:55;36.90;45.60
12446;DHT22;6287;50.984;7.022;2022-08-14T11:43:24;36.90;45.40
12446;DHT22;6287;50.984;7.022;2022-08-14T11:48:24;37.00;45.40
12446;DHT22;6287;50.984;7.022;2022-08-14T11:50:51;37.10;45.00
12446;DHT22;6287;50.984;7.022;2022-08-14T11:53:28;37.00;44.80
12446;DHT22;6287;50.984;7.022;2022-08-14T11:56:05;37.30;44.60
12446;DHT22;6287;50.984;7.022;2022-08-14T11:58:36;37.40;44.30
12446;DHT22;6287;50.984;7.022;2022-08-14T12:01:07;37.50;44.80
12446;DHT22;6287;50.984;7.022;2022-08-14T12:03:54;37.50;44.50
12446;DHT22;6287;50.984;7.022;2022-08-14T12:06:26;37.50;43.80
12446;DHT22;6287;50.984;7.022;2022-08-14T12:08:51;37.60;44.80
12446;DHT22;6287;50.984;7.022;2022-08-14T12:11:22;37.50;44.60
12446;DHT22;6287;50.984;7.022;2022-08-14T12:13:50;37.40;44.20
12446;DHT22;6287;50.984;7.022;2022-08-14T12:16:18;37.30;44.60
12446;DHT22;6287;50.984;7.022;2022-08-14T12:18:47;37.30;43.70
12446;DHT22;6287;50.984;7.022;2022-08-14T12:21:21;37.50;43.60
12446;DHT22;6287;50.984;7.022;2022-08-14T12:24:03;37.60;43.80
12446;DHT22;6287;50.984;7.022;2022-08-14T12:26:29;37.80;43.40
12446;DHT22;6287;50.984;7.022;2022-08-14T12:29:13;38.00;42.10
12446;DHT22;6287;50.984;7.022;2022-08-14T12:31:41;38.10;43.50
12446;DHT22;6287;50.984;7.022;2022-08-14T12:34:11;38.60;42.60
12446;DHT22;6287;50.984;7.022;2022-08-14T12:36:38;38.90;42.40
12446;DHT22;6287;50.984;7.022;2022-08-14T12:39:16;39.10;42.90
12446;DHT22;6287;50.984;7.022;2022-08-14T12:41:55;39.30;41.80
12446;DHT22;6287;50.984;7.022;2022-08-14T12:44:33;39.50;43.40
12446;DHT22;6287;50.984;7.022;2022-08-14T12:47:13;39.60;41.60
12446;DHT22;6287;50.984;7.022;2022-08-14T12:49:53;39.70;41.70
12446;DHT22;6287;50.984;7.022;2022-08-14T12:52:37;40.00;41.20
12446;DHT22;6287;50.984;7.022;2022-08-14T12:55:13;40.30;40.60
12446;DHT22;6287;50.984;7.022;2022-08-14T12:57:44;40.20;39.70
12446;DHT22;6287;50.984;7.022;2022-08-14T13:00:19;40.20;40.90
12446;DHT22;6287;50.984;7.022;2022-08-14T13:02:47;40.40;40.20
12446;DHT22;6287;50.984;7.022;2022-08-14T13:05:22;39.80;40.20
12446;DHT22;6287;50.984;7.022;2022-08-14T13:07:52;39.80;40.60
12446;DHT22;6287;50.984;7.022;2022-08-14T13:10:19;40.40;39.40
12446;DHT22;6287;50.984;7.022;2022-08-14T13:12:46;40.70;39.50
12446;DHT22;6287;50.984;7.022;2022-08-14T13:15:13;40.90;39.10
12446;DHT22;6287;50.984;7.022;2022-08-14T13:17:49;41.30;38.40
12446;DHT22;6287;50.984;7.022;2022-08-14T13:20:19;41.80;38.00
12446;DHT22;6287;50.984;7.022;2022-08-14T13:22:47;42.10;37.10
12446;DHT22;6287;50.984;7.022;2022-08-14T13:25:15;41.80;36.20
12446;DHT22;6287;50.984;7.022;2022-08-14T13:27:44;40.70;37.40
12446;DHT22;6287;50.984;7.022;2022-08-14T13:30:14;39.50;39.20
12446;DHT22;6287;50.984;7.022;2022-08-14T13:32:40;38.90;41.00
12446;DHT22;6287;50.984;7.022;2022-08-14T13:35:12;38.80;39.60
12446;DHT22;6287;50.984;7.022;2022-08-14T13:37:40;38.40;40.10
12446;DHT22;6287;50.984;7.022;2022-08-14T13:40:06;38.10;41.00
12446;DHT22;6287;50.984;7.022;2022-08-14T13:42:42;38.30;40.50
12446;DHT22;6287;50.984;7.022;2022-08-14T13:45:11;38.70;41.90
12446;DHT22;6287;50.984;7.022;2022-08-14T13:47:38;38.90;40.50
12446;DHT22;6287;50.984;7.022;2022-08-14T13:50:07;38.60;41.40
12446;DHT22;6287;50.984;7.022;2022-08-14T13:52:46;37.90;41.40
12446;DHT22;6287;50.984;7.022;2022-08-14T13:55:20;37.30;41.70
12446;DHT22;6287;50.984;7.022;2022-08-14T13:57:50;36.80;42.40
12446;DHT22;6287;50.984;7.022;2022-08-14T14:00:17;36.60;44.50
12446;DHT22;6287;50.984;7.022;2022-08-14T14:02:46;36.40;44.30
12446;DHT22;6287;50.984;7.022;2022-08-14T14:05:15;36.90;43.50
12446;DHT22;6287;50.984;7.022;2022-08-14T14:07:51;37.40;42.60
12446;DHT22;6287;50.984;7.022;2022-08-14T14:10:21;38.30;41.50
12446;DHT22;6287;50.984;7.022;2022-08-14T14:12:52;38.90;41.10
12446;DHT22;6287;50.984;7.022;2022-08-14T14:15:21;39.40;41.20
12446;DHT22;6287;50.984;7.022;2022-08-14T14:17:47;40.10;39.90
12446;DHT22;6287;50.984;7.022;2022-08-14T14:20:15;40.60;38.50
12446;DHT22;6287;50.984;7.022;2022-08-14T14:22:43;40.60;39.00
12446;DHT22;6287;50.984;7.022;2022-08-14T14:25:10;40.30;38.20
12446;DHT22;6287;50.984;7.022;2022-08-14T14:27:43;39.60;38.80
12446;DHT22;6287;50.984;7.022;2022-08-14T14:30:13;39.10;39.60
12446;DHT22;6287;50.984;7.022;2022-08-14T14:32:43;38.60;40.70
12446;DHT22;6287;50.984;7.022;2022-08-14T14:35:14;38.00;40.20
12446;DHT22;6287;50.984;7.022;2022-08-14T14:37:46;37.80;40.80
12446;DHT22;6287;50.984;7.022;2022-08-14T14:40:13;37.90;40.40
12446;DHT22;6287;50.984;7.022;2022-08-14T14:42:49;38.20;39.90
12446;DHT22;6287;50.984;7.022;2022-08-14T14:45:24;38.70;39.80
12446;DHT22;6287;50.984;7.022;2022-08-14T14:47:54;39.30;39.40
12446;DHT22;6287;50.984;7.022;2022-08-14T14:50:23;39.90;38.00
12446;DHT22;6287;50.984;7.022;2022-08-14T14:52:51;40.40;37.40
12446;DHT22;6287;50.984;7.022;2022-08-14T14:55:21;40.60;36.40
12446;DHT22;6287;50.984;7.022;2022-08-14T14:57:49;40.60;35.90
12446;DHT22;6287;50.984;7.022;2022-08-14T15:00:18;40.70;36.70
12446;DHT22;6287;50.984;7.022;2022-08-14T15:02:47;41.10;36.00
12446;DHT22;6287;50.984;7.022;2022-08-14T15:05:14;41.30;35.50
12446;DHT22;6287;50.984;7.022;2022-08-14T15:07:43;41.50;34.80
12446;DHT22;6287;50.984;7.022;2022-08-14T15:10:11;41.60;35.60
12446;DHT22;6287;50.984;7.022;2022-08-14T15:12:37;41.80;34.80
12446;DHT22;6287;50.984;7.022;2022-08-14T15:15:04;41.80;34.20
12446;DHT22;6287;50.984;7.022;2022-08-14T15:17:32;41.80;34.20
12446;DHT22;6287;50.984;7.022;2022-08-14T15:20:14;41.50;34.20
12446;DHT22;6287;50.984;7.022;2022-08-14T15:22:40;40.90;34.80
12446;DHT22;6287;50.984;7.022;2022-08-14T15:25:07;40.60;34.80
12446;DHT22;6287;50.984;7.022;2022-08-14T15:27:34;40.70;34.40
12446;DHT22;6287;50.984;7.022;2022-08-14T15:30:00;40.60;35.90
12446;DHT22;6287;50.984;7.022;2022-08-14T15:32:26;40.20;35.30
12446;DHT22;6287;50.984;7.022;2022-08-14T15:34:54;39.60;36.20
12446;DHT22;6287;50.984;7.022;2022-08-14T15:37:19;39.00;36.40
12446;DHT22;6287;50.984;7.022;2022-08-14T15:39:47;38.50;37.20
12446;DHT22;6287;50.984;7.022;2022-08-14T15:42:16;38.20;37.30
12446;DHT22;6287;50.984;7.022;2022-08-14T15:44:46;37.80;37.40
12446;DHT22;6287;50.984;7.022;2022-08-14T15:47:12;37.50;38.00
12446;DHT22;6287;50.984;7.022;2022-08-14T15:49:41;37.40;37.20
12446;DHT22;6287;50.984;7.022;2022-08-14T15:52:07;37.50;38.30
12446;DHT22;6287;50.984;7.022;2022-08-14T15:54:33;37.90;37.10
12446;DHT22;6287;50.984;7.022;2022-08-14T15:57:07;38.20;35.60
12446;DHT22;6287;50.984;7.022;2022-08-14T15:59:37;38.20;35.60
12446;DHT22;6287;50.984;7.022;2022-08-14T16:02:24;38.20;36.90
12446;DHT22;6287;50.984;7.022;2022-08-14T16:04:51;38.00;37.30
12446;DHT22;6287;50.984;7.022;2022-08-14T16:07:17;37.80;37.00
12446;DHT22;6287;50.984;7.022;2022-08-14T16:09:47;37.60;37.90
12446;DHT22;6287;50.984;7.022;2022-08-14T16:12:12;37.40;37.50
12446;DHT22;6287;50.984;7.022;2022-08-14T16:14:38;37.10;38.20
12446;DHT22;6287;50.984;7.022;2022-08-14T16:17:07;36.80;39.30
12446;DHT22;6287;50.984;7.022;2022-08-14T16:19:38;36.40;39.50
12446;DHT22;6287;50.984;7.022;2022-08-14T16:22:12;36.20;39.50
12446;DHT22;6287;50.984;7.022;2022-08-14T16:24:43;36.10;39.90
12446;DHT22;6287;50.984;7.022;2022-08-14T16:27:09;36.00;39.80
12446;DHT22;6287;50.984;7.022;2022-08-14T16:29:38;35.90;39.80
12446;DHT22;6287;50.984;7.022;2022-08-14T16:32:05;35.70;39.80
12446;DHT22;6287;50.984;7.022;2022-08-14T16:34:36;35.30;39.80
12446;DHT22;6287;50.984;7.022;2022-08-14T16:37:08;35.20;40.90
12446;DHT22;6287;50.984;7.022;2022-08-14T16:39:39;35.20;40.10
12446;DHT22;6287;50.984;7.022;2022-08-14T16:42:11;35.30;40.40